Time;durP1;ratioP1;P1;durP2;ratioP2;P2;SDS_P1;SDS_P2;PMS_P1;PMS_P2;Temp;Humidity;BMP_temperature;BMP_pressure;BME280_temperature;BME280_humidity;BME280_pressure;Samples;Min_cycle;Max_cycle;Signal;HPM_P1;HPM_P2
2022/11/08 00:02:24;;;;;;;5.93;3.38;;;8.50;78.50;;;;;;5056645;28;20119;-80
2022/11/08 00:04:49;;;;;;;10.82;3.83;;;8.50;78.40;;;;;;5053798;28;20029;-80
2022/11/08 00:15:28;;;;;;;5.65;2.95;;;8.40;78.80;;;;;;5053503;28;20082;-80
2022/11/08 00:17:55;;;;;;;7.78;3.28;;;8.40;78.90;;;;;;5053242;28;20032;-78
2022/11/08 00:20:20;;;;;;;10.27;3.75;;;8.40;78.80;;;;;;5052636;28;20028;-79
2022/11/08 00:22:46;;;;;;;3.97;2.95;;;8.40;78.80;;;;;;5035380;28;20021;-80
2022/11/08 00:25:11;;;;;;;6.95;3.20;;;8.40;78.90;;;;;;5053227;28;20025;-79
2022/11/08 00:27:37;;;;;;;6.60;3.67;;;8.40;78.90;;;;;;5053188;28;20041;-79
2022/11/08 00:30:03;;;;;;;8.70;3.55;;;8.40;79.00;;;;;;5053276;28;20032;-79
2022/11/08 00:32:29;;;;;;;6.88;3.22;;;8.40;78.90;;;;;;5053003;28;20044;-80
2022/11/08 00:34:54;;;;;;;8.00;2.90;;;8.50;79.40;;;;;;5035366;28;20428;-80
2022/11/08 00:37:21;;;;;;;5.13;2.17;;;8.50;79.70;;;;;;5053064;28;20025;-79
2022/11/08 00:39:47;;;;;;;4.88;2.70;;;8.60;79.70;;;;;;5034901;28;20075;-79
2022/11/08 00:42:13;;;;;;;6.50;2.42;;;8.70;80.50;;;;;;5034802;28;20033;-80
2022/11/08 00:44:39;;;;;;;4.40;2.30;;;8.80;79.30;;;;;;5052970;28;20386;-79
2022/11/08 00:47:04;;;;;;;5.18;2.05;;;8.90;79.00;;;;;;5052907;28;20489;-80
2022/11/08 00:49:30;;;;;;;3.28;1.85;;;9.00;78.80;;;;;;5053035;28;20021;-81
2022/11/08 00:51:56;;;;;;;4.78;1.75;;;9.00;78.70;;;;;;5052776;28;20051;-78
2022/11/08 00:54:21;;;;;;;4.85;1.40;;;9.10;78.30;;;;;;5052939;28;20017;-78
2022/11/08 00:56:48;;;;;;;4.20;2.00;;;9.20;78.10;;;;;;5053015;28;20017;-79
2022/11/08 00:59:16;;;;;;;2.72;1.30;;;9.20;77.60;;;;;;5052760;28;20040;-79
2022/11/08 01:01:42;;;;;;;5.00;1.70;;;9.30;77.60;;;;;;5052902;28;20059;-79
2022/11/08 01:04:10;;;;;;;3.03;1.90;;;9.30;77.40;;;;;;5052704;28;20056;-78
2022/11/08 01:06:36;;;;;;;3.25;1.48;;;9.30;76.90;;;;;;5052669;28;20508;-81
2022/11/08 01:09:03;;;;;;;2.35;1.60;;;9.40;76.80;;;;;;5034992;28;20036;-79
2022/11/08 01:11:29;;;;;;;5.25;1.55;;;9.40;76.50;;;;;;5034817;28;20021;-79
2022/11/08 01:13:56;;;;;;;3.95;1.95;;;9.30;76.40;;;;;;5052603;28;20033;-80
2022/11/08 01:16:24;;;;;;;4.93;1.60;;;9.30;76.40;;;;;;5052677;28;20137;-81
2022/11/08 01:18:52;;;;;;;3.40;1.67;;;9.30;76.50;;;;;;5052663;28;20025;-80
2022/11/08 01:21:18;;;;;;;3.97;2.03;;;9.30;76.40;;;;;;5052504;28;20021;-80
2022/11/08 01:23:44;;;;;;;4.85;2.15;;;9.30;76.20;;;;;;5052539;28;20044;-82
2022/11/08 01:26:12;;;;;;;4.85;2.03;;;9.40;76.00;;;;;;5052953;28;20103;-79
2022/11/08 01:28:38;;;;;;;5.85;2.10;;;9.40;75.70;;;;;;5052669;28;20028;-83
2022/11/08 01:31:05;;;;;;;4.70;2.28;;;9.30;75.60;;;;;;5053310;28;20393;-83
2022/11/08 01:33:31;;;;;;;4.45;2.33;;;9.30;75.90;;;;;;5039096;28;20025;-84
2022/11/08 01:35:57;;;;;;;4.50;2.10;;;9.30;75.70;;;;;;5039102;28;20381;-84
2022/11/08 01:38:22;;;;;;;4.30;2.00;;;9.30;75.60;;;;;;5056882;28;20057;-84
2022/11/08 01:40:48;;;;;;;2.90;1.83;;;9.30;75.60;;;;;;5056851;28;20485;-83
2022/11/08 01:43:29;;;;;;;5.68;1.73;;;9.20;75.60;;;;;;5056567;28;20489;-85
2022/11/08 01:46:16;;;;;;;5.38;1.80;;;9.20;75.90;;;;;;5056461;28;20083;-82
2022/11/08 01:48:51;;;;;;;5.40;2.13;;;9.10;75.90;;;;;;5038593;28;20032;-80
2022/11/08 01:51:19;;;;;;;4.05;2.05;;;9.10;76.00;;;;;;5056360;28;20519;-80
2022/11/08 01:53:46;;;;;;;4.18;2.28;;;9.00;76.10;;;;;;5056381;28;20083;-78
2022/11/08 01:56:14;;;;;;;6.18;2.15;;;8.90;76.30;;;;;;5063268;28;20043;-77
2022/11/08 01:58:41;;;;;;;6.43;2.13;;;8.90;76.50;;;;;;5043236;28;20440;-81
2022/11/08 02:01:07;;;;;;;4.55;1.88;;;8.90;76.40;;;;;;5056140;28;20021;-78
2022/11/08 02:03:34;;;;;;;4.53;2.08;;;9.00;76.10;;;;;;5056144;28;20036;-82
2022/11/08 02:06:02;;;;;;;5.95;2.28;;;9.10;75.90;;;;;;5055924;28;20032;-81
2022/11/08 02:08:38;;;;;;;7.47;2.17;;;9.00;75.90;;;;;;5055901;28;20021;-82
2022/11/08 02:11:05;;;;;;;9.65;2.45;;;9.00;75.60;;;;;;5056219;28;20025;-82
2022/11/08 02:13:32;;;;;;;3.45;2.08;;;8.90;75.80;;;;;;5055717;28;20126;-81
2022/11/08 02:15:58;;;;;;;5.15;2.17;;;8.90;76.10;;;;;;5055848;28;20025;-81
2022/11/08 02:18:26;;;;;;;5.10;1.95;;;8.90;76.10;;;;;;5039303;28;20027;-81
2022/11/08 02:21:11;;;;;;;4.15;2.03;;;8.90;76.20;;;;;;5069003;28;20462;-82
2022/11/08 02:24:01;;;;;;;5.40;2.15;;;8.80;76.30;;;;;;5055443;28;20028;-78
2022/11/08 02:26:34;;;;;;;3.60;1.80;;;8.90;76.30;;;;;;5057531;28;20056;-79
2022/11/08 02:29:27;;;;;;;3.90;1.58;;;8.80;75.90;;;;;;5065544;28;20072;-79
2022/11/08 02:31:54;;;;;;;5.20;2.10;;;8.80;75.80;;;;;;5078619;28;20096;-78
2022/11/08 02:34:31;;;;;;;4.90;2.08;;;8.70;76.10;;;;;;5080022;28;20172;-77
2022/11/08 02:36:58;;;;;;;3.65;1.55;;;8.70;76.00;;;;;;5074098;28;20051;-78
2022/11/08 02:39:24;;;;;;;4.03;1.77;;;8.60;76.20;;;;;;5038150;28;20021;-79
2022/11/08 02:41:49;;;;;;;4.18;1.85;;;8.60;76.40;;;;;;5055504;28;20094;-78
2022/11/08 02:44:15;;;;;;;5.95;2.15;;;8.60;76.70;;;;;;5054923;28;20112;-78
2022/11/08 02:46:40;;;;;;;5.82;1.60;;;8.50;76.80;;;;;;5037146;28;20091;-79
2022/11/08 02:49:06;;;;;;;4.05;1.75;;;8.40;77.00;;;;;;5055097;28;20045;-80
2022/11/08 02:51:32;;;;;;;2.78;1.67;;;8.40;77.20;;;;;;5037574;28;20068;-80
2022/11/08 02:53:57;;;;;;;3.05;1.70;;;8.40;77.90;;;;;;5055058;28;20494;-79
2022/11/08 02:56:23;;;;;;;2.90;1.67;;;8.50;76.80;;;;;;5055086;28;20021;-78
2022/11/08 02:58:48;;;;;;;3.25;1.77;;;8.40;76.60;;;;;;5055241;28;20492;-79
2022/11/08 03:01:14;;;;;;;2.85;1.40;;;8.40;76.80;;;;;;5055161;28;20025;-81
2022/11/08 03:03:39;;;;;;;4.18;1.70;;;8.40;76.90;;;;;;5055134;28;20111;-81
2022/11/08 03:06:05;;;;;;;3.65;1.63;;;8.40;76.90;;;;;;5055081;28;20524;-81
2022/11/08 03:08:31;;;;;;;4.32;1.92;;;8.40;76.90;;;;;;5036908;28;20047;-81
2022/11/08 03:10:58;;;;;;;4.68;2.10;;;8.30;76.50;;;;;;5054681;28;20075;-81
2022/11/08 03:13:24;;;;;;;7.10;2.08;;;8.30;76.70;;;;;;5053472;28;20494;-79
2022/11/08 03:15:49;;;;;;;3.83;1.63;;;8.30;76.70;;;;;;5054469;28;20143;-80
2022/11/08 03:18:15;;;;;;;2.72;1.92;;;8.30;76.80;;;;;;5054688;28;20472;-79
2022/11/08 03:20:41;;;;;;;5.45;2.05;;;8.30;76.70;;;;;;5054572;28;20039;-78
2022/11/08 03:23:07;;;;;;;6.32;2.25;;;8.20;76.70;;;;;;5054270;28;20024;-79
2022/11/08 03:25:33;;;;;;;5.30;1.75;;;8.20;76.50;;;;;;5036463;28;20025;-78
2022/11/08 03:28:06;;;;;;;3.85;1.60;;;8.20;76.40;;;;;;5054434;28;20033;-79
2022/11/08 03:30:32;;;;;;;6.47;1.85;;;8.20;76.30;;;;;;5054415;28;20155;-78
2022/11/08 03:32:58;;;;;;;2.22;1.67;;;8.20;76.50;;;;;;5054175;28;20037;-79
2022/11/08 03:35:23;;;;;;;5.50;2.05;;;8.20;76.40;;;;;;5054233;28;20021;-79
2022/11/08 03:37:54;;;;;;;7.68;2.13;;;8.20;76.30;;;;;;5052876;28;20033;-78
2022/11/08 03:40:20;;;;;;;6.82;2.60;;;8.10;76.50;;;;;;5054179;28;20712;-79
2022/11/08 03:42:46;;;;;;;6.28;2.38;;;8.20;76.30;;;;;;5053971;28;20025;-78
2022/11/08 03:45:13;;;;;;;4.72;2.22;;;8.10;76.50;;;;;;5036161;28;20428;-79
2022/11/08 03:47:41;;;;;;;3.20;1.77;;;8.00;76.80;;;;;;5053606;28;20468;-81
2022/11/08 03:50:08;;;;;;;4.03;1.88;;;8.00;76.90;;;;;;5036140;28;20025;-79
2022/11/08 03:52:45;;;;;;;7.35;2.10;;;7.90;77.00;;;;;;5035460;28;20082;-78
2022/11/08 03:55:11;;;;;;;6.53;2.20;;;7.80;77.30;;;;;;5052771;28;20087;-79
2022/11/08 03:57:39;;;;;;;9.00;2.10;;;7.70;77.40;;;;;;5053840;28;20021;-78
2022/11/08 04:00:06;;;;;;;6.88;2.40;;;7.70;77.80;;;;;;5053693;28;20112;-79
2022/11/08 04:02:32;;;;;;;6.03;2.10;;;7.60;77.80;;;;;;5053756;28;20045;-79
2022/11/08 04:04:57;;;;;;;5.95;2.38;;;7.60;78.00;;;;;;5053508;28;20057;-81
2022/11/08 04:07:23;;;;;;;3.30;2.03;;;7.70;77.80;;;;;;5053933;28;20052;-80
2022/11/08 04:09:48;;;;;;;6.00;2.25;;;7.70;77.80;;;;;;5053558;28;20024;-79
2022/11/08 04:15:13;;;;;;;5.88;2.35;;;7.80;77.50;;;;;;5053673;28;20520;-78
2022/11/08 04:23:07;;;;;;;3.08;1.85;;;7.80;76.90;;;;;;5053365;28;20079;-79
2022/11/08 04:25:33;;;;;;;3.45;1.70;;;7.70;76.90;;;;;;5053352;28;20025;-77
2022/11/08 04:27:58;;;;;;;5.75;2.22;;;7.80;77.00;;;;;;5035459;28;20017;-77
2022/11/08 04:30:24;;;;;;;5.47;2.20;;;7.80;76.90;;;;;;5035486;28;20017;-78
2022/11/08 04:32:49;;;;;;;6.03;2.85;;;7.70;76.90;;;;;;5053053;28;20416;-78
2022/11/08 04:35:15;;;;;;;2.58;1.73;;;7.80;76.90;;;;;;5053204;28;20462;-78
2022/11/08 04:37:40;;;;;;;4.05;1.85;;;7.70;77.20;;;;;;5054050;28;20457;-78
2022/11/08 04:40:07;;;;;;;4.28;2.05;;;7.80;77.20;;;;;;5052766;28;20050;-78
2022/11/08 04:42:32;;;;;;;5.10;1.70;;;7.80;77.00;;;;;;5053108;28;20016;-79
2022/11/08 04:44:58;;;;;;;4.75;2.03;;;7.90;77.00;;;;;;5053063;28;20362;-77
2022/11/08 04:47:23;;;;;;;4.18;1.80;;;7.90;76.80;;;;;;5053141;28;20056;-79
2022/11/08 04:49:49;;;;;;;4.93;1.80;;;7.90;76.60;;;;;;5052867;28;20277;-80
2022/11/08 04:52:15;;;;;;;5.18;2.28;;;7.90;76.30;;;;;;5052874;28;20033;-80
2022/11/08 04:54:44;;;;;;;7.47;2.25;;;7.80;76.40;;;;;;5052662;28;20036;-80
2022/11/08 04:57:10;;;;;;;6.90;2.50;;;7.70;76.70;;;;;;5052853;28;20092;-80
2022/11/08 04:59:36;;;;;;;6.88;2.53;;;7.60;76.90;;;;;;5034991;28;20043;-82
2022/11/08 05:02:01;;;;;;;6.13;2.13;;;7.60;77.20;;;;;;5052601;28;20470;-80
2022/11/08 05:04:27;;;;;;;4.50;1.95;;;7.60;77.20;;;;;;5052830;28;20033;-81
2022/11/08 05:06:53;;;;;;;3.70;2.13;;;7.60;76.80;;;;;;5056187;28;20021;-79
2022/11/08 05:09:18;;;;;;;3.97;2.25;;;7.60;77.00;;;;;;5059399;28;20021;-79
2022/11/08 05:11:44;;;;;;;5.93;2.17;;;7.60;77.00;;;;;;5059178;28;20029;-79
2022/11/08 05:14:09;;;;;;;6.93;2.50;;;7.60;76.70;;;;;;5059380;28;20395;-79
2022/11/08 05:16:35;;;;;;;7.78;2.90;;;7.60;76.70;;;;;;5059457;28;20021;-80
2022/11/08 05:19:00;;;;;;;7.22;3.25;;;7.60;76.70;;;;;;5059466;28;20025;-80
2022/11/08 05:24:13;;;;;;;5.18;1.73;;;7.50;76.90;;;;;;5059582;28;20020;-79
2022/11/08 05:26:41;;;;;;;4.35;2.28;;;7.60;76.70;;;;;;5059429;28;20021;-80
2022/11/08 05:29:07;;;;;;;3.90;2.10;;;7.60;76.40;;;;;;5059274;28;20060;-81
2022/11/08 05:31:33;;;;;;;3.03;2.03;;;7.60;76.40;;;;;;5041304;28;20025;-82
2022/11/08 05:33:59;;;;;;;4.90;1.95;;;7.60;76.50;;;;;;5059211;28;20598;-82
2022/11/08 05:36:25;;;;;;;3.35;2.15;;;7.60;76.50;;;;;;5041265;28;20025;-82
2022/11/08 05:38:51;;;;;;;5.85;2.30;;;7.60;76.40;;;;;;5059052;28;20477;-81
2022/11/08 05:41:20;;;;;;;4.45;2.40;;;7.60;76.40;;;;;;5058926;28;20029;-80
2022/11/08 05:43:48;;;;;;;4.25;2.28;;;7.70;76.10;;;;;;5059165;28;20024;-80
2022/11/08 05:46:15;;;;;;;6.43;2.17;;;7.60;75.80;;;;;;5059036;28;20386;-81
2022/11/08 05:48:42;;;;;;;6.72;2.40;;;7.60;75.60;;;;;;5059075;28;20033;-81
2022/11/08 05:51:09;;;;;;;7.00;1.95;;;7.60;75.60;;;;;;5058888;28;20058;-81
2022/11/08 05:53:34;;;;;;;7.03;1.95;;;7.60;75.60;;;;;;5040856;28;20029;-80
2022/11/08 05:56:01;;;;;;;4.80;1.83;;;7.60;75.80;;;;;;5058980;28;20024;-82
2022/11/08 05:58:28;;;;;;;5.20;2.08;;;7.60;75.60;;;;;;5058918;28;20052;-81
2022/11/08 06:01:15;;;;;;;4.53;2.45;;;7.70;75.30;;;;;;5058726;28;20029;-81
2022/11/08 06:03:41;;;;;;;3.75;1.95;;;7.60;75.20;;;;;;5040783;28;20032;-81
2022/11/08 06:06:15;;;;;;;4.50;2.08;;;7.70;74.90;;;;;;5040619;28;20116;-81
2022/11/08 06:08:41;;;;;;;4.60;2.53;;;7.70;74.70;;;;;;5040745;28;20063;-80
2022/11/08 06:11:09;;;;;;;3.85;2.08;;;7.80;74.50;;;;;;5058749;28;20441;-80
2022/11/08 06:13:35;;;;;;;3.60;2.03;;;7.80;74.40;;;;;;5058330;28;20478;-79
2022/11/08 06:16:03;;;;;;;5.93;2.13;;;7.90;73.50;;;;;;5058649;28;20032;-80
2022/11/08 06:18:29;;;;;;;3.97;2.10;;;8.00;73.20;;;;;;5038105;28;20025;-80
2022/11/08 06:20:57;;;;;;;5.20;2.00;;;8.00;73.60;;;;;;5055620;28;20025;-81
2022/11/08 06:23:23;;;;;;;3.63;1.63;;;8.10;72.60;;;;;;5038074;28;20398;-81
2022/11/08 06:25:49;;;;;;;3.63;1.70;;;8.20;72.10;;;;;;5057637;28;20108;-81
2022/11/08 06:28:14;;;;;;;3.80;1.85;;;8.40;71.50;;;;;;5039610;28;20428;-81
2022/11/08 06:30:40;;;;;;;4.32;1.90;;;8.50;71.00;;;;;;5037552;28;20021;-82
2022/11/08 06:33:06;;;;;;;5.75;1.63;;;8.60;70.50;;;;;;5036696;28;20124;-81
2022/11/08 06:35:31;;;;;;;2.85;1.40;;;8.60;70.10;;;;;;5037461;28;20477;-80
2022/11/08 06:37:57;;;;;;;4.93;1.73;;;8.80;69.50;;;;;;5055273;28;20028;-81
2022/11/08 06:40:23;;;;;;;3.88;1.40;;;8.90;69.20;;;;;;5036924;28;20021;-81
2022/11/08 06:42:48;;;;;;;4.38;2.05;;;9.00;68.90;;;;;;5054745;28;20057;-80
2022/11/08 06:45:14;;;;;;;3.72;1.85;;;9.10;68.70;;;;;;5054905;28;20036;-82
2022/11/08 06:47:39;;;;;;;3.60;1.50;;;9.10;67.90;;;;;;5054995;28;20045;-81
2022/11/08 06:50:05;;;;;;;2.97;1.48;;;9.20;68.30;;;;;;5037191;28;20017;-82
2022/11/08 06:52:31;;;;;;;6.47;3.50;;;9.40;66.70;;;;;;5055092;28;20033;-81
2022/11/08 06:54:57;;;;;;;5.55;2.95;;;9.40;65.90;;;;;;5054918;28;20494;-81
2022/11/08 06:57:22;;;;;;;3.63;2.40;;;9.60;65.60;;;;;;5055084;28;20021;-80
2022/11/08 06:59:48;;;;;;;3.92;1.90;;;9.60;65.10;;;;;;5054820;28;20025;-80
2022/11/08 07:02:16;;;;;;;4.80;1.52;;;9.70;65.20;;;;;;5056507;28;20024;-79
2022/11/08 07:04:42;;;;;;;3.08;1.55;;;9.70;64.80;;;;;;5075478;28;20036;-79
2022/11/08 07:07:07;;;;;;;3.50;1.80;;;9.80;64.80;;;;;;5038468;28;20028;-80
2022/11/08 07:09:33;;;;;;;11.25;5.40;;;9.80;65.00;;;;;;5054712;28;20108;-80
2022/11/08 07:11:58;;;;;;;8.82;4.60;;;9.80;65.40;;;;;;5036575;28;20124;-79
2022/11/08 07:14:24;;;;;;;8.10;3.00;;;9.80;65.50;;;;;;5054486;28;20442;-80
2022/11/08 07:16:49;;;;;;;9.77;3.08;;;9.80;65.50;;;;;;5054525;28;20021;-80
2022/11/08 07:19:15;;;;;;;4.30;2.40;;;9.60;65.40;;;;;;5036502;28;20024;-79
2022/11/08 07:21:41;;;;;;;7.88;3.15;;;9.50;65.80;;;;;;5054631;28;20056;-80
2022/11/08 07:24:06;;;;;;;4.28;2.10;;;9.50;65.80;;;;;;5054160;28;20020;-78
2022/11/08 07:26:32;;;;;;;5.32;2.30;;;9.40;65.80;;;;;;5054536;28;20025;-79
2022/11/08 07:28:57;;;;;;;5.05;1.90;;;9.50;65.70;;;;;;5054199;28;20025;-79
2022/11/08 07:31:23;;;;;;;4.32;2.10;;;9.50;65.80;;;;;;5054219;28;20469;-79
2022/11/08 07:33:49;;;;;;;3.25;1.40;;;9.50;65.50;;;;;;5036375;28;20037;-81
2022/11/08 07:36:14;;;;;;;2.60;1.80;;;9.50;65.30;;;;;;5054194;28;20096;-78
2022/11/08 07:38:40;;;;;;;3.72;1.70;;;9.60;65.20;;;;;;5054111;28;20037;-78
2022/11/08 07:41:06;;;;;;;3.33;1.63;;;9.70;64.90;;;;;;5054089;28;20024;-79
2022/11/08 07:43:31;;;;;;;4.13;2.40;;;9.70;64.50;;;;;;5054293;28;20545;-79
2022/11/08 07:45:59;;;;;;;7.15;2.25;;;9.80;64.30;;;;;;5054302;28;20083;-78
2022/11/08 07:48:26;;;;;;;3.78;1.67;;;9.80;64.20;;;;;;5055326;28;20052;-79
2022/11/08 07:50:52;;;;;;;3.15;1.55;;;9.90;64.40;;;;;;5061227;28;20088;-78
2022/11/08 07:53:19;;;;;;;2.38;0.90;;;10.20;62.50;;;;;;5069303;28;20135;-80
2022/11/08 07:55:46;;;;;;;3.53;1.52;;;10.40;60.50;;;;;;5061932;28;20017;-78
2022/11/08 07:58:13;;;;;;;4.93;1.95;;;10.70;60.40;;;;;;5061024;28;20024;-79
2022/11/08 08:00:40;;;;;;;3.15;1.92;;;11.00;59.90;;;;;;5062756;28;20085;-80
2022/11/08 08:03:08;;;;;;;3.50;1.67;;;11.20;59.80;;;;;;5068156;28;20474;-79
2022/11/08 08:05:37;;;;;;;5.40;2.45;;;11.40;59.30;;;;;;5056420;28;20382;-81
2022/11/08 08:08:03;;;;;;;3.90;2.10;;;11.60;59.10;;;;;;5053253;28;20103;-78
2022/11/08 08:10:31;;;;;;;3.38;1.80;;;11.60;58.70;;;;;;5053601;28;20029;-79
2022/11/08 08:12:57;;;;;;;4.57;1.60;;;11.70;57.90;;;;;;5053498;28;20037;-80
2022/11/08 08:15:23;;;;;;;4.97;1.58;;;11.70;57.50;;;;;;5053317;28;20104;-80
2022/11/08 08:17:49;;;;;;;3.85;1.30;;;11.70;57.90;;;;;;5053455;28;20040;-80
2022/11/08 08:20:15;;;;;;;3.40;1.50;;;11.80;58.30;;;;;;5036080;28;20029;-80
2022/11/08 08:22:50;;;;;;;4.40;1.70;;;11.90;57.90;;;;;;5053299;28;20120;-79
2022/11/08 08:25:16;;;;;;;3.47;1.90;;;12.00;56.70;;;;;;5053238;28;20017;-78
2022/11/08 08:27:50;;;;;;;2.58;1.60;;;12.10;56.70;;;;;;5052967;28;20021;-79
2022/11/08 08:30:17;;;;;;;5.75;1.80;;;12.20;56.60;;;;;;5053130;28;20075;-80
2022/11/08 08:32:43;;;;;;;8.68;2.22;;;12.30;59.00;;;;;;5053057;28;20036;-80
2022/11/08 08:35:09;;;;;;;5.07;1.73;;;12.50;63.70;;;;;;5053027;28;20105;-75
2022/11/08 08:37:35;;;;;;;14.32;3.10;;;12.70;62.80;;;;;;5052944;28;20025;-76
2022/11/08 08:40:01;;;;;;;11.60;3.08;;;12.90;59.80;;;;;;5053066;28;20021;-76
2022/11/08 08:42:26;;;;;;;3.58;1.20;;;13.30;57.50;;;;;;5052185;28;20060;-78
2022/11/08 08:44:52;;;;;;;3.45;1.40;;;13.70;55.20;;;;;;5052746;28;20495;-77
2022/11/08 08:47:17;;;;;;;4.82;1.30;;;14.00;53.90;;;;;;5052707;28;20075;-76
2022/11/08 08:49:43;;;;;;;3.13;1.05;;;14.20;53.00;;;;;;5051531;28;20040;-77
2022/11/08 08:52:08;;;;;;;5.43;1.25;;;14.40;51.70;;;;;;5052743;28;20063;-77
2022/11/08 08:54:34;;;;;;;1.60;1.05;;;14.60;49.50;;;;;;5051231;28;20492;-77
2022/11/08 08:57:00;;;;;;;3.35;1.08;;;14.70;49.60;;;;;;5052758;28;20036;-77
2022/11/08 08:59:27;;;;;;;3.28;1.10;;;14.70;49.30;;;;;;5052551;28;20064;-77
2022/11/08 09:01:52;;;;;;;1.48;0.73;;;14.70;45.60;;;;;;5052453;28;20032;-76
2022/11/08 09:04:18;;;;;;;1.77;1.00;;;14.60;43.30;;;;;;5052547;28;20036;-77
2022/11/08 09:06:43;;;;;;;3.33;0.80;;;14.40;43.30;;;;;;5034456;28;20021;-76
2022/11/08 09:09:09;;;;;;;4.15;0.80;;;14.20;44.50;;;;;;5052620;28;20119;-78
2022/11/08 09:11:35;;;;;;;0.88;0.60;;;14.10;43.70;;;;;;5052563;28;20036;-79
2022/11/08 09:14:00;;;;;;;4.63;0.80;;;14.10;44.60;;;;;;5052630;28;20041;-77
2022/11/08 09:16:26;;;;;;;1.75;0.60;;;14.10;45.20;;;;;;5052344;28;20397;-77
2022/11/08 09:18:51;;;;;;;0.90;0.70;;;14.20;46.00;;;;;;5052494;28;20035;-77
2022/11/08 09:21:17;;;;;;;2.65;0.85;;;14.10;48.30;;;;;;5057861;28;20108;-77
2022/11/08 09:23:42;;;;;;;0.98;0.68;;;14.00;47.40;;;;;;5068334;28;20032;-78
2022/11/08 09:26:09;;;;;;;4.45;0.98;;;13.90;47.80;;;;;;5052747;28;20147;-78
2022/11/08 09:28:35;;;;;;;4.35;0.70;;;13.90;48.70;;;;;;5052499;28;20029;-78
2022/11/08 09:31:08;;;;;;;1.77;1.10;;;13.90;48.30;;;;;;5052293;28;20036;-78
2022/11/08 09:33:33;;;;;;;2.67;1.58;;;13.90;48.70;;;;;;5052377;28;20064;-79
2022/11/08 09:36:00;;;;;;;0.85;0.70;;;13.90;49.10;;;;;;5052396;28;20053;-78
2022/11/08 09:38:26;;;;;;;1.73;0.88;;;13.90;47.80;;;;;;5052301;28;20052;-78
2022/11/08 09:41:10;;;;;;;3.35;1.10;;;13.90;48.30;;;;;;5050743;28;20024;-81
2022/11/08 09:43:48;;;;;;;1.45;0.95;;;13.90;48.60;;;;;;5032064;28;20470;-78
2022/11/08 09:46:35;;;;;;;1.85;0.93;;;14.00;47.70;;;;;;5032139;28;20026;-79
2022/11/08 09:49:05;;;;;;;1.88;1.20;;;14.00;48.40;;;;;;5032425;28;20034;-78
2022/11/08 09:51:33;;;;;;;4.00;1.33;;;14.10;49.00;;;;;;5031978;28;20072;-79
2022/11/08 09:54:00;;;;;;;3.05;0.93;;;14.10;49.70;;;;;;5033704;28;20033;-77
2022/11/08 09:56:35;;;;;;;1.35;0.77;;;14.20;49.70;;;;;;5048267;28;20025;-77
2022/11/08 09:59:32;;;;;;;1.35;0.70;;;14.20;47.70;;;;;;5045910;28;20474;-79
2022/11/08 10:01:58;;;;;;;2.60;0.82;;;14.30;48.10;;;;;;5046940;28;20527;-78
2022/11/08 10:04:27;;;;;;;2.97;1.00;;;14.40;47.30;;;;;;5048584;28;20132;-78
2022/11/08 10:07:32;;;;;;;1.25;0.70;;;14.50;47.60;;;;;;5048836;28;20045;-77
2022/11/08 10:10:23;;;;;;;3.05;1.13;;;14.70;45.30;;;;;;5046748;28;20394;-78
2022/11/08 10:13:11;;;;;;;0.52;0.52;;;15.00;44.00;;;;;;5044494;28;20033;-78
2022/11/08 10:15:52;;;;;;;3.53;0.90;;;15.30;41.90;;;;;;5037583;28;20478;-77
2022/11/08 10:18:48;;;;;;;2.58;0.90;;;15.50;42.90;;;;;;5044270;28;20406;-77
2022/11/08 10:21:29;;;;;;;2.85;1.10;;;15.70;38.60;;;;;;5044206;28;20162;-77
2022/11/08 10:24:02;;;;;;;1.38;0.85;;;15.70;38.20;;;;;;5051904;28;20513;-80
2022/11/08 10:26:46;;;;;;;4.57;1.30;;;15.80;37.90;;;;;;5037726;28;20043;-81
2022/11/08 10:29:21;;;;;;;4.40;0.95;;;15.80;39.40;;;;;;5055108;28;20489;-80
2022/11/08 10:31:51;;;;;;;5.13;1.10;;;15.80;39.00;;;;;;5037463;28;20112;-81
2022/11/08 10:34:22;;;;;;;1.95;0.73;;;15.80;40.90;;;;;;5055479;28;20024;-80
2022/11/08 10:36:53;;;;;;;2.15;1.27;;;15.80;41.70;;;;;;5055235;28;20030;-79
2022/11/08 10:39:29;;;;;;;4.40;1.25;;;15.80;42.00;;;;;;5055525;28;20032;-81
2022/11/08 10:42:12;;;;;;;1.10;1.00;;;15.80;41.50;;;;;;5055198;28;20072;-83
2022/11/08 10:44:40;;;;;;;5.88;1.33;;;15.90;41.50;;;;;;5037102;28;20094;-81
2022/11/08 10:47:12;;;;;;;3.35;1.48;;;15.90;41.70;;;;;;5037086;28;20069;-82
2022/11/08 10:49:40;;;;;;;3.45;1.20;;;16.10;41.70;;;;;;5055060;28;20078;-81
2022/11/08 10:52:18;;;;;;;3.65;1.52;;;16.30;40.90;;;;;;5055092;28;20423;-81
2022/11/08 10:54:51;;;;;;;1.98;1.42;;;16.80;40.40;;;;;;5035697;28;20458;-83
2022/11/08 10:57:31;;;;;;;4.45;1.52;;;17.20;39.70;;;;;;5055096;28;20021;-82
2022/11/08 11:00:20;;;;;;;1.98;1.33;;;17.70;38.50;;;;;;5036895;28;20120;-81
2022/11/08 11:02:50;;;;;;;2.90;1.10;;;18.20;37.30;;;;;;5055035;28;20025;-85
2022/11/08 11:05:16;;;;;;;2.20;1.35;;;18.70;35.80;;;;;;5036229;28;20021;-86
2022/11/08 11:08:13;;;;;;;4.03;1.00;;;18.90;35.80;;;;;;5037084;28;20051;-82
2022/11/08 11:10:41;;;;;;;2.80;1.13;;;18.70;33.50;;;;;;5036866;28;20045;-81
2022/11/08 11:13:13;;;;;;;1.05;0.85;;;18.50;34.30;;;;;;5054782;28;20033;-82
2022/11/08 11:15:38;;;;;;;1.50;1.00;;;18.60;35.20;;;;;;5054603;28;20025;-81
2022/11/08 11:18:17;;;;;;;2.70;1.20;;;18.60;35.20;;;;;;5036849;28;20505;-82
2022/11/08 11:20:54;;;;;;;3.58;0.70;;;19.00;34.50;;;;;;5054878;28;20029;-81
2022/11/08 11:23:20;;;;;;;1.00;0.60;;;19.10;32.40;;;;;;5037636;28;20124;-83
2022/11/08 11:25:50;;;;;;;2.08;0.50;;;19.00;30.60;;;;;;5046416;28;20025;-84
2022/11/08 11:28:17;;;;;;;5.43;0.90;;;18.90;30.90;;;;;;5038225;28;20021;-83
2022/11/08 11:30:57;;;;;;;2.45;0.52;;;18.80;31.00;;;;;;5061657;28;20029;-82
2022/11/08 11:33:25;;;;;;;0.98;0.70;;;18.60;30.80;;;;;;5022231;28;20040;-83
2022/11/08 11:35:56;;;;;;;3.80;0.60;;;18.40;31.40;;;;;;5053655;28;20033;-83
2022/11/08 11:38:47;;;;;;;4.70;1.00;;;18.30;31.50;;;;;;5060057;28;20044;-83
2022/11/08 11:41:23;;;;;;;2.45;0.60;;;18.10;32.00;;;;;;5038799;28;20017;-84
2022/11/08 11:44:10;;;;;;;1.65;0.88;;;18.10;32.10;;;;;;5055229;28;20017;-84
2022/11/08 11:46:51;;;;;;;1.55;0.50;;;18.10;32.10;;;;;;5042390;28;20049;-83
2022/11/08 11:49:19;;;;;;;0.68;0.50;;;18.30;32.10;;;;;;5038100;28;20048;-84
2022/11/08 11:51:45;;;;;;;4.70;1.25;;;18.40;32.40;;;;;;5039162;28;20032;-83
2022/11/08 11:54:14;;;;;;;1.70;1.00;;;18.50;33.00;;;;;;5057285;28;20037;-83
2022/11/08 11:57:06;;;;;;;2.53;0.60;;;18.60;32.60;;;;;;5039834;28;20024;-84
2022/11/08 11:59:41;;;;;;;0.55;0.50;;;18.70;32.30;;;;;;5039824;28;20035;-81
2022/11/08 12:02:41;;;;;;;0.80;0.60;;;18.60;31.90;;;;;;5056862;28;20396;-83
2022/11/08 12:05:21;;;;;;;1.10;0.70;;;18.70;31.80;;;;;;5045163;28;20485;-83
2022/11/08 12:08:03;;;;;;;1.00;0.60;;;19.70;31.20;;;;;;5035558;28;20438;-83
2022/11/08 12:10:58;;;;;;;1.00;0.60;;;20.60;29.20;;;;;;5037195;28;20089;-83
2022/11/08 12:14:02;;;;;;;1.73;0.88;;;21.30;28.80;;;;;;5035442;28;20385;-83
2022/11/08 12:16:36;;;;;;;1.15;0.90;;;22.10;27.00;;;;;;5001769;28;20100;-83
2022/11/08 12:19:20;;;;;;;3.75;0.90;;;22.60;25.00;;;;;;5055682;28;20021;-83
2022/11/08 12:22:23;;;;;;;2.30;0.63;;;23.20;24.30;;;;;;5061239;28;20021;-85
2022/11/08 12:25:24;;;;;;;1.65;0.65;;;23.60;23.30;;;;;;5060187;28;20028;-84
2022/11/08 12:27:52;;;;;;;1.27;0.70;;;23.70;22.70;;;;;;5044238;28;20052;-85
2022/11/08 12:30:26;;;;;;;2.17;0.68;;;23.80;21.40;;;;;;5050031;28;20505;-84
2022/11/08 12:32:57;;;;;;;2.65;0.90;;;24.40;21.00;;;;;;5035276;28;20037;-86
2022/11/08 12:35:37;;;;;;;1.83;0.65;;;24.90;19.70;;;;;;5035684;28;20115;-86
2022/11/08 12:38:31;;;;;;;0.45;0.40;;;24.70;20.50;;;;;;5036084;28;20025;-87
2022/11/08 12:41:05;;;;;;;2.50;0.88;;;24.80;20.00;;;;;;5036326;28;20408;-87
2022/11/08 12:43:55;;;;;;;2.03;0.90;;;25.50;19.40;;;;;;5035796;28;20028;-87
2022/11/08 12:46:21;;;;;;;4.07;0.80;;;26.20;18.30;;;;;;5056939;28;20036;-85
2022/11/08 12:49:17;;;;;;;0.57;0.50;;;24.70;19.80;;;;;;5037637;28;20393;-86
2022/11/08 12:51:46;;;;;;;;;;;23.10;22.80;;;;;;5017928;28;20029;-84
2022/11/08 12:54:28;;;;;;;2.03;0.90;;;22.00;24.20;;;;;;5055064;28;19912;-84
2022/11/08 12:56:58;;;;;;;1.05;0.70;;;20.90;27.40;;;;;;5056086;28;20461;-85
2022/11/08 12:59:33;;;;;;;2.30;0.82;;;20.20;28.90;;;;;;5038460;28;20550;-85
2022/11/08 13:02:01;;;;;;;1.08;0.47;;;19.60;30.80;;;;;;5037346;28;20420;-85
2022/11/08 13:04:42;;;;;;;3.38;0.90;;;19.10;31.70;;;;;;5037081;28;20489;-85
2022/11/08 13:07:26;;;;;;;2.97;1.17;;;18.70;33.10;;;;;;5036734;28;20035;-82
2022/11/08 13:10:15;;;;;;;2.60;1.33;;;18.50;33.80;;;;;;5054799;28;20462;-85
2022/11/08 13:13:18;;;;;;;1.92;1.23;;;18.30;34.30;;;;;;5035336;28;20086;-84
2022/11/08 13:16:07;;;;;;;1.75;1.15;;;18.10;34.60;;;;;;5035412;28;20112;-84
2022/11/08 13:18:35;;;;;;;2.03;1.33;;;17.90;35.50;;;;;;5035329;28;20024;-84
2022/11/08 13:21:27;;;;;;;2.50;0.90;;;17.80;36.20;;;;;;5035245;28;20025;-84
2022/11/08 13:23:54;;;;;;;4.40;1.90;;;17.80;36.70;;;;;;5053477;28;20033;-83
2022/11/08 13:26:26;;;;;;;2.85;1.20;;;17.80;36.70;;;;;;5036033;28;20021;-84
2022/11/08 13:28:52;;;;;;;1.63;1.30;;;17.80;36.90;;;;;;5039216;28;20029;-84